Time,TemperatureF,DewpointF,PressureIn,WindDirection,WindDirectionDegrees,WindSpeedMPH,WindSpeedGustMPH,Humidity,HourlyPrecipIn,Conditions,Clouds,dailyrainin,SolarRadiationWatts/m^2,SoftwareType,DateUTC
2013-02-15 00:00:00,35.5,27.7,29.84,NNW,336,12.5,15.0,73,0.00,OVC,,0.00,0.0,WeatherDisplay:10.37,2013-02-15 05:00:00,
2013-02-15 00:05:00,35.5,27.7,29.85,WNW,291,12.2,12.2,73,0.00,OVC,,0.00,0.0,WeatherDisplay:10.37,2013-02-15 05:05:00,
2013-02-15 00:10:00,35.3,27.8,29.85,WNW,285,15.9,16.1,74,0.00,OVC,,0.00,0.0,WeatherDisplay:10.37,2013-02-15 05:10:00,
2013-02-15 00:12:00,35.3,27.8,29.85,WNW,296,11.8,15.0,74,0.00,OVC,,0.00,0.0,WeatherDisplay:10.37,2013-02-15 05:12:00,
2013-02-15 00:18:00,35.2,27.7,29.85,West,270,10.9,16.5,74,0.00,OVC,,0.00,0.0,WeatherDisplay:10.37,2013-02-15 05:18:00,
2013-02-15 00:23:00,35.0,27.5,29.85,WNW,291,13.2,13.2,74,0.00,OVC,,0.00,0.0,WeatherDisplay:10.37,2013-02-15 05:23:00,
2013-02-15 00:28:00,35.0,27.5,29.85,WNW,289,7.5,9.2,74,0.00,OVC,,0.00,0.0,WeatherDisplay:10.37,2013-02-15 05:28:00,
2013-02-15 00:33:00,34.9,27.5,29.85,WNW,289,9.5,10.4,74,0.00,OVC,,0.00,0.0,WeatherDisplay:10.37,2013-02-15 05:33:00,
2013-02-15 00:38:00,34.9,27.5,29.85,West,277,11.4,15.0,74,0.00,OVC,,0.00,0.0,WeatherDisplay:10.37,2013-02-15 05:38:00,
2013-02-15 00:43:00,34.7,27.3,29.85,West,264,7.0,9.2,74,0.00,OVC,,0.00,0.0,WeatherDisplay:10.37,2013-02-15 05:43:00,
2013-02-15 00:48:00,34.6,27.2,29.86,WNW,292,8.4,10.4,74,0.00,OVC,,0.00,0.0,WeatherDisplay:10.37,2013-02-15 05:48:00,
2013-02-15 00:53:00,34.6,27.5,29.86,SW,227,12.6,12.6,75,0.00,OVC,,0.00,0.0,WeatherDisplay:10.37,2013-02-15 05:53:00,
2013-02-15 00:58:00,34.6,27.5,29.86,West,275,11.1,13.8,75,0.00,OVC,,0.00,0.0,WeatherDisplay:10.37,2013-02-15 05:58:00,
2013-02-15 01:03:00,34.6,27.5,29.86,WSW,244,11.8,15.0,75,0.00,OVC,,0.00,0.0,WeatherDisplay:10.37,2013-02-15 06:03:00,
2013-02-15 01:08:00,34.6,27.5,29.86,WNW,285,6.0,9.2,75,0.00,OVC,,0.00,0.0,WeatherDisplay:10.37,2013-02-15 06:08:00,
2013-02-15 01:13:00,34.6,27.5,29.86,WNW,294,11.3,11.3,75,0.00,OVC,,0.00,0.0,WeatherDisplay:10.37,2013-02-15 06:13:00,
2013-02-15 01:18:00,34.6,27.5,29.86,WNW,288,5.3,7.5,75,0.00,OVC,,0.00,0.0,WeatherDisplay:10.37,2013-02-15 06:18:00,
2013-02-15 01:23:00,34.4,27.3,29.86,WNW,292,6.4,7.5,75,0.00,OVC,,0.00,0.0,WeatherDisplay:10.37,2013-02-15 06:23:00,
2013-02-15 01:28:00,34.4,27.6,29.86,NW,304,5.3,8.1,76,0.00,OVC,,0.00,0.0,WeatherDisplay:10.37,2013-02-15 06:28:00,
2013-02-15 01:30:00,34.4,27.6,29.86,WNW,288,8.0,11.0,76,0.00,OVC,,0.00,0.0,WeatherDisplay:10.37,2013-02-15 06:30:00,
2013-02-15 01:35:00,34.4,27.6,29.87,NW,304,3.7,10.4,76,0.00,OVC,,0.00,0.0,WeatherDisplay:10.37,2013-02-15 06:35:00,
2013-02-15 01:40:00,34.3,27.5,29.87,WNW,289,9.7,11.5,76,0.00,OVC,,0.00,0.0,WeatherDisplay:10.37,2013-02-15 06:40:00,
2013-02-15 01:45:00,34.0,26.9,29.87,WNW,296,10.8,15.0,75,0.00,OVC,,0.00,0.0,WeatherDisplay:10.37,2013-02-15 06:45:00,
2013-02-15 01:50:00,33.7,26.3,29.87,NW,311,8.1,9.2,74,0.00,OVC,,0.00,0.0,WeatherDisplay:10.37,2013-02-15 06:50:00,
2013-02-15 01:55:00,33.5,26.1,29.87,NNW,329,11.0,13.8,74,0.00,OVC,,0.00,0.0,WeatherDisplay:10.37,2013-02-15 06:55:00,
2013-02-15 02:00:00,33.4,25.7,29.87,WNW,299,12.2,16.1,73,0.00,OVC,,0.00,0.0,WeatherDisplay:10.37,2013-02-15 07:00:00,
2013-02-15 02:05:00,33.4,25.7,29.88,WNW,301,16.7,24.2,73,0.00,-SN,,0.00,0.0,WeatherDisplay:10.37,2013-02-15 07:05:00,
2013-02-15 02:10:00,33.1,25.4,29.88,WNW,295,8.6,15.0,73,0.00,-SN,,0.00,0.0,WeatherDisplay:10.37,2013-02-15 07:10:00,
2013-02-15 02:15:00,32.9,25.2,29.88,WNW,299,9.5,10.5,73,0.00,-SN,,0.00,0.0,WeatherDisplay:10.37,2013-02-15 07:15:00,
2013-02-15 02:20:00,32.8,24.8,29.88,WNW,284,6.8,9.2,72,0.00,-SN,,0.00,0.0,WeatherDisplay:10.37,2013-02-15 07:20:00,
2013-02-15 02:25:00,32.7,24.7,29.88,NW,316,9.1,10.4,72,0.00,-SN,,0.00,0.0,WeatherDisplay:10.37,2013-02-15 07:25:00,
2013-02-15 02:30:00,32.5,24.1,29.88,NNW,343,7.9,11.5,71,0.00,-SN,,0.00,0.0,WeatherDisplay:10.37,2013-02-15 07:30:00,
2013-02-15 02:35:00,32.4,24.4,29.88,NW,305,5.9,10.4,72,0.00,-SN,,0.00,0.0,WeatherDisplay:10.37,2013-02-15 07:35:00,
2013-02-15 02:40:00,32.2,24.2,29.88,WNW,282,8.1,9.2,72,0.00,-SN,,0.00,0.0,WeatherDisplay:10.37,2013-02-15 07:40:00,
2013-02-15 02:45:00,32.2,24.5,29.88,NW,312,7.5,9.2,73,0.00,-SN,,0.00,0.0,WeatherDisplay:10.37,2013-02-15 07:45:00,
2013-02-15 02:50:00,32.2,24.5,29.89,WNW,295,6.5,9.2,73,0.00,-SN,,0.00,0.0,WeatherDisplay:10.37,2013-02-15 07:50:00,
2013-02-15 02:55:00,32.4,25.0,29.89,WNW,289,10.6,10.6,74,0.00,-SN,,0.00,0.0,WeatherDisplay:10.37,2013-02-15 07:55:00,
2013-02-15 03:00:00,32.2,24.8,29.89,NW,308,5.8,8.1,74,0.00,-SN,,0.00,0.0,WeatherDisplay:10.37,2013-02-15 08:00:00,
2013-02-15 03:05:00,32.1,25.1,29.90,WNW,287,5.5,8.1,75,0.00,OVC,,0.00,0.0,WeatherDisplay:10.37,2013-02-15 08:05:00,
2013-02-15 03:10:00,31.9,24.9,29.90,WNW,298,9.5,9.5,75,0.00,OVC,,0.00,0.0,WeatherDisplay:10.37,2013-02-15 08:10:00,
2013-02-15 03:15:00,31.8,24.8,29.90,NW,305,4.3,9.2,75,0.00,OVC,,0.00,0.0,WeatherDisplay:10.37,2013-02-15 08:15:00,
2013-02-15 03:20:00,31.5,24.5,29.90,WNW,287,5.8,10.4,75,0.00,OVC,,0.00,0.0,WeatherDisplay:10.37,2013-02-15 08:20:00,
2013-02-15 03:25:00,31.3,24.3,29.90,WNW,284,9.8,15.0,75,0.00,OVC,,0.00,0.0,WeatherDisplay:10.37,2013-02-15 08:25:00,
2013-02-15 03:30:00,31.3,24.3,29.90,WNW,285,6.0,9.2,75,0.00,OVC,,0.00,0.0,WeatherDisplay:10.37,2013-02-15 08:30:00,
2013-02-15 03:35:00,31.2,24.2,29.91,West,281,8.1,9.0,75,0.00,OVC,,0.00,0.0,WeatherDisplay:10.37,2013-02-15 08:35:00,
2013-02-15 03:40:00,31.2,24.2,29.91,NW,320,9.0,10.4,75,0.00,OVC,,0.00,0.0,WeatherDisplay:10.37,2013-02-15 08:40:00,
2013-02-15 03:45:00,31.2,24.2,29.91,WNW,288,7.1,10.4,75,0.00,OVC,,0.00,0.0,WeatherDisplay:10.37,2013-02-15 08:45:00,
2013-02-15 03:50:00,31.0,24.0,29.91,NW,313,5.1,10.4,75,0.00,OVC,,0.00,0.0,WeatherDisplay:10.37,2013-02-15 08:50:00,
2013-02-15 03:55:00,30.9,23.9,29.91,WNW,292,6.5,8.1,75,0.00,OVC,,0.00,0.0,WeatherDisplay:10.37,2013-02-15 08:55:00,
2013-02-15 04:00:00,30.7,23.7,29.91,WNW,302,4.5,4.6,75,0.00,OVC,,0.00,0.0,WeatherDisplay:10.37,2013-02-15 09:00:00,
2013-02-15 04:05:00,30.6,23.6,29.91,WNW,302,5.8,8.1,75,0.00,FEW,,0.00,0.0,WeatherDisplay:10.37,2013-02-15 09:05:00,
2013-02-15 04:10:00,30.4,23.1,29.91,WNW,288,5.8,9.2,74,0.00,FEW,,0.00,0.0,WeatherDisplay:10.37,2013-02-15 09:10:00,
2013-02-15 04:15:00,30.4,23.1,29.91,WNW,287,5.2,8.1,74,0.00,FEW,,0.00,0.0,WeatherDisplay:10.37,2013-02-15 09:15:00,
2013-02-15 04:20:00,30.4,23.1,29.91,NW,308,8.1,9.2,74,0.00,FEW,,0.00,0.0,WeatherDisplay:10.37,2013-02-15 09:20:00,
2013-02-15 04:25:00,30.3,23.0,29.91,WNW,287,4.3,10.4,74,0.00,FEW,,0.00,0.0,WeatherDisplay:10.37,2013-02-15 09:25:00,
2013-02-15 04:30:00,30.1,22.8,29.91,WNW,291,5.7,5.7,74,0.00,FEW,,0.00,0.0,WeatherDisplay:10.37,2013-02-15 09:30:00,
2013-02-15 04:35:00,30.0,22.7,29.92,WNW,289,4.7,4.7,74,0.00,FEW,,0.00,0.0,WeatherDisplay:10.37,2013-02-15 09:35:00,
2013-02-15 04:40:00,30.0,22.7,29.92,WNW,299,7.2,9.2,74,0.00,FEW,,0.00,0.0,WeatherDisplay:10.37,2013-02-15 09:40:00,
2013-02-15 04:45:00,29.8,22.5,29.92,WNW,285,3.9,5.8,74,0.00,FEW,,0.00,0.0,WeatherDisplay:10.37,2013-02-15 09:45:00,
2013-02-15 04:50:00,29.7,22.4,29.92,WNW,289,4.3,4.6,74,0.00,FEW,,0.00,0.0,WeatherDisplay:10.37,2013-02-15 09:50:00,
2013-02-15 04:55:00,29.5,22.6,29.92,NW,306,4.1,4.6,75,0.00,FEW,,0.00,0.0,WeatherDisplay:10.37,2013-02-15 09:55:00,
2013-02-15 05:00:00,29.5,22.6,29.92,WNW,294,5.9,6.0,75,0.00,FEW,,0.00,0.0,WeatherDisplay:10.37,2013-02-15 10:00:00,
2013-02-15 05:05:00,29.4,22.5,29.93,West,275,5.1,5.8,75,0.00,SCT,,0.00,0.0,WeatherDisplay:10.37,2013-02-15 10:05:00,
2013-02-15 05:10:00,29.4,22.5,29.93,WNW,284,4.5,4.6,75,0.00,SCT,,0.00,0.0,WeatherDisplay:10.37,2013-02-15 10:10:00,
2013-02-15 05:15:00,29.3,22.4,29.93,West,274,4.3,4.6,75,0.00,SCT,,0.00,0.0,WeatherDisplay:10.37,2013-02-15 10:15:00,
2013-02-15 05:20:00,29.1,22.2,29.94,WNW,301,6.2,8.1,75,0.00,SCT,,0.00,0.0,WeatherDisplay:10.37,2013-02-15 10:20:00,
2013-02-15 05:25:00,29.1,22.2,29.94,West,275,5.5,8.1,75,0.00,SCT,,0.00,0.0,WeatherDisplay:10.37,2013-02-15 10:25:00,
2013-02-15 05:30:00,29.0,22.1,29.94,WNW,295,2.4,4.6,75,0.00,SCT,,0.00,0.0,WeatherDisplay:10.37,2013-02-15 10:30:00,
2013-02-15 05:35:00,29.0,22.1,29.95,WNW,292,2.7,3.5,75,0.00,SCT,,0.00,0.0,WeatherDisplay:10.37,2013-02-15 10:35:00,
2013-02-15 05:40:00,28.8,21.9,29.95,WNW,288,2.5,3.5,75,0.00,SCT,,0.00,0.0,WeatherDisplay:10.37,2013-02-15 10:40:00,
2013-02-15 05:45:00,28.7,21.8,29.95,WNW,282,7.6,10.4,75,0.00,SCT,,0.00,0.0,WeatherDisplay:10.37,2013-02-15 10:45:00,
2013-02-15 05:50:00,28.5,21.6,29.96,WNW,285,3.8,4.6,75,0.00,SCT,,0.00,0.0,WeatherDisplay:10.37,2013-02-15 10:50:00,
2013-02-15 05:55:00,28.4,21.5,29.96,WNW,287,4.1,4.6,75,0.00,SCT,,0.00,0.0,WeatherDisplay:10.37,2013-02-15 10:55:00,
2013-02-15 06:00:00,28.2,21.3,29.96,WNW,287,2.6,3.5,75,0.00,SCT,,0.00,0.0,WeatherDisplay:10.37,2013-02-15 11:00:00,
2013-02-15 06:05:00,28.1,21.2,29.97,WNW,287,2.6,4.6,75,0.00,SCT,,0.00,0.0,WeatherDisplay:10.37,2013-02-15 11:05:00,
2013-02-15 06:10:00,27.9,21.3,29.97,NW,306,4.8,8.1,76,0.00,SCT,,0.00,0.0,WeatherDisplay:10.37,2013-02-15 11:10:00,
2013-02-15 06:15:00,27.9,21.3,29.97,NW,311,4.4,8.1,76,0.00,SCT,,0.00,0.0,WeatherDisplay:10.37,2013-02-15 11:15:00,
2013-02-15 06:20:00,27.9,21.3,29.98,NW,308,6.5,9.2,76,0.00,SCT,,0.00,0.0,WeatherDisplay:10.37,2013-02-15 11:20:00,
2013-02-15 06:25:00,28.1,20.9,29.98,West,275,13.5,13.5,74,0.00,SCT,,0.00,0.0,WeatherDisplay:10.37,2013-02-15 11:25:00,
2013-02-15 06:30:00,28.2,20.7,29.98,West,274,6.0,9.2,73,0.00,SCT,,0.00,0.0,WeatherDisplay:10.37,2013-02-15 11:30:00,
2013-02-15 06:35:00,28.4,20.8,29.98,West,275,4.2,4.6,73,0.00,SCT,,0.00,0.0,WeatherDisplay:10.37,2013-02-15 11:35:00,
2013-02-15 06:40:00,28.4,20.8,29.98,NW,313,4.1,4.6,73,0.00,SCT,,0.00,0.0,WeatherDisplay:10.37,2013-02-15 11:40:00,
2013-02-15 06:45:00,28.4,20.8,29.98,NW,315,5.1,5.8,73,0.00,SCT,,0.00,0.0,WeatherDisplay:10.37,2013-02-15 11:45:00,
2013-02-15 06:50:00,28.4,20.8,29.99,WNW,299,3.8,3.8,73,0.00,SCT,,0.00,0.0,WeatherDisplay:10.37,2013-02-15 11:50:00,
2013-02-15 06:55:00,28.4,20.8,29.99,WNW,295,4.4,4.6,73,0.00,SCT,,0.00,0.0,WeatherDisplay:10.37,2013-02-15 11:55:00,
2013-02-15 07:00:00,28.4,20.8,29.99,WNW,284,4.0,6.0,73,0.00,SCT,,0.00,0.0,WeatherDisplay:10.37,2013-02-15 12:00:00,
2013-02-15 07:05:00,28.4,21.2,30.00,West,272,3.9,5.8,74,0.00,OVC,,0.00,0.0,WeatherDisplay:10.37,2013-02-15 12:05:00,
2013-02-15 07:10:00,28.4,21.2,30.00,West,264,2.6,6.0,74,0.00,OVC,,0.00,0.0,WeatherDisplay:10.37,2013-02-15 12:10:00,
2013-02-15 07:15:00,28.4,21.2,30.00,WNW,288,2.8,4.6,74,0.00,OVC,,0.00,0.0,WeatherDisplay:10.37,2013-02-15 12:15:00,
2013-02-15 07:20:00,28.4,21.2,30.00,West,263,5.4,9.2,74,0.00,OVC,,0.00,0.0,WeatherDisplay:10.37,2013-02-15 12:20:00,
2013-02-15 07:25:00,28.4,21.2,30.00,NW,311,5.7,8.1,74,0.00,OVC,,0.00,0.0,WeatherDisplay:10.37,2013-02-15 12:25:00,
2013-02-15 07:30:00,28.4,20.8,30.00,NNW,328,9.4,16.5,73,0.00,OVC,,0.00,0.0,WeatherDisplay:10.37,2013-02-15 12:30:00,
2013-02-15 07:35:00,28.2,20.0,30.00,WNW,291,4.5,10.4,71,0.00,OVC,,0.00,5.0,WeatherDisplay:10.37,2013-02-15 12:35:00,
2013-02-15 07:40:00,28.2,20.0,30.00,West,280,6.9,8.1,71,0.00,OVC,,0.00,7.0,WeatherDisplay:10.37,2013-02-15 12:40:00,
2013-02-15 07:45:00,28.1,19.9,30.00,WNW,296,3.6,9.2,71,0.00,OVC,,0.00,11.0,WeatherDisplay:10.37,2013-02-15 12:45:00,
2013-02-15 07:50:00,28.1,19.2,30.01,WNW,302,7.7,9.2,69,0.00,OVC,,0.00,12.0,WeatherDisplay:10.37,2013-02-15 12:50:00,
2013-02-15 07:55:00,28.1,18.5,30.01,NW,304,4.7,9.2,67,0.00,OVC,,0.00,18.0,WeatherDisplay:10.37,2013-02-15 12:55:00,
2013-02-15 08:00:00,28.1,18.5,30.01,WNW,298,8.5,9.2,67,0.00,OVC,,0.00,21.0,WeatherDisplay:10.37,2013-02-15 13:00:00,
2013-02-15 08:05:00,28.1,18.5,30.02,WNW,299,3.8,4.6,67,0.00,OVC,,0.00,26.0,WeatherDisplay:10.37,2013-02-15 13:05:00,
2013-02-15 08:10:00,28.1,18.9,30.02,WNW,298,3.3,4.6,68,0.00,OVC,,0.00,32.0,WeatherDisplay:10.37,2013-02-15 13:10:00,
2013-02-15 08:15:00,27.9,18.0,30.02,NW,316,5.5,9.2,66,0.00,OVC,,0.00,33.0,WeatherDisplay:10.37,2013-02-15 13:15:00,
2013-02-15 08:20:00,27.8,17.6,30.02,NW,318,2.8,3.5,65,0.00,OVC,,0.00,39.0,WeatherDisplay:10.37,2013-02-15 13:20:00,
2013-02-15 08:25:00,27.6,17.0,30.02,West,274,5.6,9.2,64,0.00,OVC,,0.00,42.0,WeatherDisplay:10.37,2013-02-15 13:25:00,
2013-02-15 08:30:00,27.6,17.0,30.02,WNW,295,3.3,4.6,64,0.00,OVC,,0.00,44.0,WeatherDisplay:10.37,2013-02-15 13:30:00,
2013-02-15 08:35:00,27.5,16.9,30.03,West,275,5.5,6.0,64,0.00,OVC,,0.00,46.0,WeatherDisplay:10.37,2013-02-15 13:35:00,
2013-02-15 08:40:00,27.5,16.9,30.03,WNW,296,3.4,4.6,64,0.00,OVC,,0.00,51.0,WeatherDisplay:10.37,2013-02-15 13:40:00,
2013-02-15 08:45:00,27.3,17.1,30.03,NW,313,7.5,8.1,65,0.00,OVC,,0.00,55.0,WeatherDisplay:10.37,2013-02-15 13:45:00,
2013-02-15 08:50:00,27.0,16.4,30.04,West,274,6.3,9.2,64,0.00,OVC,,0.00,63.0,WeatherDisplay:10.37,2013-02-15 13:50:00,
2013-02-15 08:55:00,26.9,16.3,30.04,NW,305,6.7,9.2,64,0.00,OVC,,0.00,69.0,WeatherDisplay:10.37,2013-02-15 13:55:00,
2013-02-15 09:00:00,26.9,16.3,30.04,NW,311,3.9,8.1,64,0.00,OVC,,0.00,76.0,WeatherDisplay:10.37,2013-02-15 14:00:00,
2013-02-15 09:05:00,26.9,16.3,30.05,West,271,4.9,6.0,64,0.00,OVC,,0.00,84.0,WeatherDisplay:10.37,2013-02-15 14:05:00,
2013-02-15 09:10:00,26.9,16.3,30.05,NW,311,8.7,10.4,64,0.00,OVC,,0.00,84.0,WeatherDisplay:10.37,2013-02-15 14:10:00,
2013-02-15 09:15:00,26.7,16.1,30.05,WNW,294,11.5,11.5,64,0.00,OVC,,0.00,86.0,WeatherDisplay:10.37,2013-02-15 14:15:00,
2013-02-15 09:20:00,26.7,15.8,30.05,NW,315,4.7,15.0,63,0.00,OVC,,0.00,90.0,WeatherDisplay:10.37,2013-02-15 14:20:00,
2013-02-15 09:25:00,26.9,14.9,30.05,WNW,291,17.1,19.6,60,0.00,OVC,,0.00,100.0,WeatherDisplay:10.37,2013-02-15 14:25:00,
2013-02-15 09:30:00,26.7,13.9,30.05,NW,319,7.1,11.5,58,0.00,OVC,,0.00,102.0,WeatherDisplay:10.37,2013-02-15 14:30:00,
2013-02-15 09:35:00,26.7,13.5,30.06,NW,319,7.8,9.2,57,0.00,OVC,,0.00,107.0,WeatherDisplay:10.37,2013-02-15 14:35:00,
2013-02-15 09:40:00,26.9,14.1,30.06,NW,320,10.7,10.7,58,0.00,OVC,,0.00,116.0,WeatherDisplay:10.37,2013-02-15 14:40:00,
2013-02-15 09:45:00,26.9,14.1,30.06,NW,322,5.5,11.5,58,0.00,OVC,,0.00,130.0,WeatherDisplay:10.37,2013-02-15 14:45:00,
2013-02-15 09:50:00,27.0,13.8,30.06,NW,318,11.1,11.1,57,0.00,OVC,,0.00,137.0,WeatherDisplay:10.37,2013-02-15 14:50:00,
2013-02-15 09:55:00,27.0,14.2,30.06,NW,306,9.2,9.2,58,0.00,OVC,,0.00,144.0,WeatherDisplay:10.37,2013-02-15 14:55:00,
2013-02-15 10:00:00,27.2,14.0,30.06,NW,305,5.1,9.2,57,0.00,OVC,,0.00,157.0,WeatherDisplay:10.37,2013-02-15 15:00:00,
2013-02-15 10:05:00,27.5,14.6,30.06,NW,309,8.3,9.2,58,0.00,BKN,,0.00,169.0,WeatherDisplay:10.37,2013-02-15 15:05:00,
2013-02-15 10:10:00,27.6,15.1,30.06,WNW,301,8.0,8.1,59,0.00,BKN,,0.00,172.0,WeatherDisplay:10.37,2013-02-15 15:10:00,
2013-02-15 10:15:00,27.6,14.3,30.06,West,275,11.6,13.8,57,0.00,BKN,,0.00,185.0,WeatherDisplay:10.37,2013-02-15 15:15:00,
2013-02-15 10:20:00,27.6,14.3,30.07,NW,305,4.5,9.2,57,0.00,BKN,,0.00,197.0,WeatherDisplay:10.37,2013-02-15 15:20:00,
2013-02-15 10:25:00,27.8,14.5,30.07,WNW,296,4.6,5.8,57,0.00,BKN,,0.00,202.0,WeatherDisplay:10.37,2013-02-15 15:25:00,
2013-02-15 10:30:00,27.9,15.0,30.07,NW,318,4.0,5.8,58,0.00,BKN,,0.00,209.0,WeatherDisplay:10.37,2013-02-15 15:30:00,
2013-02-15 10:35:00,28.1,14.8,30.07,NW,325,6.6,9.2,57,0.00,BKN,,0.00,218.0,WeatherDisplay:10.37,2013-02-15 15:35:00,
2013-02-15 10:40:00,27.8,14.5,30.07,WNW,284,14.7,20.7,57,0.00,BKN,,0.00,202.0,WeatherDisplay:10.37,2013-02-15 15:40:00,
2013-02-15 10:45:00,27.6,14.7,30.07,NW,320,12.0,15.0,58,0.00,BKN,,0.00,204.0,WeatherDisplay:10.37,2013-02-15 15:45:00,
2013-02-15 10:50:00,27.8,14.9,30.07,NW,313,7.8,11.5,58,0.00,BKN,,0.00,250.0,WeatherDisplay:10.37,2013-02-15 15:50:00,
2013-02-15 10:55:00,28.4,15.5,30.07,NW,323,12.5,12.5,58,0.00,BKN,,0.00,250.0,WeatherDisplay:10.37,2013-02-15 15:55:00,
2013-02-15 11:00:00,28.4,15.1,30.07,WNW,289,11.0,11.5,57,0.00,BKN,,0.00,241.0,WeatherDisplay:10.37,2013-02-15 16:00:00,
2013-02-15 11:05:00,28.4,15.5,30.08,NW,315,11.0,11.5,58,0.00,BKN,,0.00,202.0,WeatherDisplay:10.37,2013-02-15 16:05:00,
2013-02-15 11:10:00,28.1,15.6,30.08,NW,326,11.1,15.0,59,0.00,BKN,,0.00,213.0,WeatherDisplay:10.37,2013-02-15 16:10:00,
2013-02-15 11:15:00,28.1,15.6,30.08,NW,306,3.9,4.6,59,0.00,BKN,,0.00,230.0,WeatherDisplay:10.37,2013-02-15 16:15:00,
2013-02-15 11:20:00,28.8,15.9,30.08,NW,313,17.4,20.7,58,0.00,BKN,,0.00,741.0,WeatherDisplay:10.37,2013-02-15 16:20:00,
2013-02-15 11:25:00,29.0,15.7,30.08,NW,322,9.9,16.1,57,0.00,BKN,,0.00,239.0,WeatherDisplay:10.37,2013-02-15 16:25:00,
2013-02-15 11:30:00,28.8,15.5,30.08,NW,305,12.9,15.0,57,0.00,BKN,,0.00,297.0,WeatherDisplay:10.37,2013-02-15 16:30:00,
2013-02-15 11:35:00,29.0,15.2,30.08,NNW,330,6.5,6.5,56,0.00,BKN,,0.00,245.0,WeatherDisplay:10.37,2013-02-15 16:35:00,
2013-02-15 11:40:00,29.1,15.7,30.08,WNW,287,8.7,12.0,57,0.00,BKN,,0.00,157.0,WeatherDisplay:10.37,2013-02-15 16:40:00,
2013-02-15 11:45:00,29.1,16.1,30.08,WNW,288,8.7,15.0,58,0.00,BKN,,0.00,202.0,WeatherDisplay:10.37,2013-02-15 16:45:00,
2013-02-15 11:50:00,29.1,15.7,30.08,WNW,294,7.6,8.1,57,0.00,BKN,,0.00,209.0,WeatherDisplay:10.37,2013-02-15 16:50:00,
2013-02-15 11:55:00,29.3,15.5,30.08,NNW,328,7.7,11.5,56,0.00,BKN,,0.00,391.0,WeatherDisplay:10.37,2013-02-15 16:55:00,
2013-02-15 12:00:00,30.0,16.6,30.08,NNW,329,8.7,15.0,57,0.00,BKN,,0.00,406.0,WeatherDisplay:10.37,2013-02-15 17:00:00,
2013-02-15 12:05:00,30.3,16.0,30.07,WNW,292,11.0,16.1,55,0.00,BKN,,0.00,215.0,WeatherDisplay:10.37,2013-02-15 17:05:00,
2013-02-15 12:10:00,30.6,16.3,30.07,WNW,289,12.5,12.5,55,0.00,BKN,,0.00,753.0,WeatherDisplay:10.37,2013-02-15 17:10:00,
2013-02-15 12:15:00,30.9,16.2,30.07,WNW,301,10.5,16.1,54,0.00,BKN,,0.00,245.0,WeatherDisplay:10.37,2013-02-15 17:15:00,
2013-02-15 12:20:00,30.4,15.3,30.07,NNW,328,12.1,12.1,53,0.00,BKN,,0.00,202.0,WeatherDisplay:10.37,2013-02-15 17:20:00,
2013-02-15 12:25:00,30.1,15.0,30.07,WNW,291,9.8,10.4,53,0.00,BKN,,0.00,283.0,WeatherDisplay:10.37,2013-02-15 17:25:00,
2013-02-15 12:30:00,30.4,15.3,30.07,West,272,13.4,13.4,53,0.00,BKN,,0.00,290.0,WeatherDisplay:10.37,2013-02-15 17:30:00,
2013-02-15 12:35:00,30.4,15.3,30.07,West,280,12.3,18.4,53,0.00,BKN,,0.00,315.0,WeatherDisplay:10.37,2013-02-15 17:35:00,
2013-02-15 12:40:00,30.7,15.6,30.07,NNW,328,7.4,11.5,53,0.00,BKN,,0.00,297.0,WeatherDisplay:10.37,2013-02-15 17:40:00,
2013-02-15 12:45:00,30.9,15.8,30.07,WNW,298,11.5,12.0,53,0.00,BKN,,0.00,292.0,WeatherDisplay:10.37,2013-02-15 17:45:00,
2013-02-15 12:50:00,30.6,14.6,30.07,WNW,292,13.2,13.2,51,0.00,BKN,,0.00,274.0,WeatherDisplay:10.37,2013-02-15 17:50:00,
2013-02-15 12:55:00,30.9,15.3,30.07,West,278,14.4,18.4,52,0.00,BKN,,0.00,273.0,WeatherDisplay:10.37,2013-02-15 17:55:00,
2013-02-15 13:00:00,30.4,14.0,30.07,WNW,287,14.0,15.0,50,0.00,BKN,,0.00,223.0,WeatherDisplay:10.37,2013-02-15 18:00:00,
2013-02-15 13:05:00,30.3,14.8,30.06,NNW,336,16.4,16.4,52,0.00,OVC,,0.00,269.0,WeatherDisplay:10.37,2013-02-15 18:05:00,
2013-02-15 13:10:00,30.6,15.0,30.06,NW,304,11.6,15.0,52,0.00,OVC,,0.00,392.0,WeatherDisplay:10.37,2013-02-15 18:10:00,
2013-02-15 13:15:00,30.9,14.9,30.06,WNW,298,14.7,15.0,51,0.00,OVC,,0.00,243.0,WeatherDisplay:10.37,2013-02-15 18:15:00,
2013-02-15 13:20:00,30.6,15.0,30.06,WNW,291,9.2,9.2,52,0.00,OVC,,0.00,220.0,WeatherDisplay:10.37,2013-02-15 18:20:00,
2013-02-15 13:25:00,30.6,15.5,30.06,NW,326,4.4,4.6,53,0.00,OVC,,0.00,215.0,WeatherDisplay:10.37,2013-02-15 18:25:00,
2013-02-15 13:30:00,30.3,15.2,30.06,WNW,289,13.7,19.6,53,0.00,OVC,,0.00,197.0,WeatherDisplay:10.37,2013-02-15 18:30:00,
2013-02-15 13:35:00,30.1,15.0,30.06,West,281,13.6,15.0,53,0.00,OVC,,0.00,211.0,WeatherDisplay:10.37,2013-02-15 18:35:00,
2013-02-15 13:40:00,30.1,14.6,30.06,WNW,282,12.4,16.1,52,0.00,OVC,,0.00,245.0,WeatherDisplay:10.37,2013-02-15 18:40:00,
2013-02-15 13:45:00,30.3,15.2,30.06,WNW,291,10.1,15.0,53,0.00,OVC,,0.00,209.0,WeatherDisplay:10.37,2013-02-15 18:45:00,
2013-02-15 13:50:00,30.4,14.9,30.06,WNW,301,13.9,15.0,52,0.00,OVC,,0.00,262.0,WeatherDisplay:10.37,2013-02-15 18:50:00,
2013-02-15 13:55:00,30.4,15.3,30.06,NW,304,9.2,10.5,53,0.00,OVC,,0.00,158.0,WeatherDisplay:10.37,2013-02-15 18:55:00,
2013-02-15 14:00:00,29.7,14.2,30.06,West,267,16.7,16.7,52,0.00,OVC,,0.00,167.0,WeatherDisplay:10.37,2013-02-15 19:00:00,
2013-02-15 14:05:00,29.4,14.4,30.06,WNW,285,11.6,11.6,53,0.00,BKN,,0.00,179.0,WeatherDisplay:10.37,2013-02-15 19:05:00,
2013-02-15 14:10:00,29.7,14.6,30.06,NW,308,12.4,18.4,53,0.00,BKN,,0.00,218.0,WeatherDisplay:10.37,2013-02-15 19:10:00,
2013-02-15 14:15:00,30.0,14.5,30.06,NW,320,13.1,16.1,52,0.00,BKN,,0.00,227.0,WeatherDisplay:10.37,2013-02-15 19:15:00,
2013-02-15 14:20:00,30.1,14.1,30.06,NW,320,15.1,16.1,51,0.00,BKN,,0.00,204.0,WeatherDisplay:10.37,2013-02-15 19:20:00,
2013-02-15 14:25:00,30.1,13.7,30.06,NW,322,12.9,12.9,50,0.00,BKN,,0.00,178.0,WeatherDisplay:10.37,2013-02-15 19:25:00,
2013-02-15 14:30:00,30.3,13.4,30.06,WNW,288,6.8,9.2,49,0.00,BKN,,0.00,185.0,WeatherDisplay:10.37,2013-02-15 19:30:00,
2013-02-15 14:35:00,30.4,13.5,30.06,West,272,9.8,11.5,49,0.00,BKN,,0.00,259.0,WeatherDisplay:10.37,2013-02-15 19:35:00,
2013-02-15 14:40:00,30.7,14.2,30.06,NW,306,7.5,9.2,50,0.00,BKN,,0.00,246.0,WeatherDisplay:10.37,2013-02-15 19:40:00,
2013-02-15 14:45:00,31.6,15.5,30.06,NW,313,6.4,9.2,51,0.00,BKN,,0.00,707.0,WeatherDisplay:10.37,2013-02-15 19:45:00,
2013-02-15 14:50:00,31.2,15.2,30.06,NNW,328,9.6,18.4,51,0.00,BKN,,0.00,167.0,WeatherDisplay:10.37,2013-02-15 19:50:00,
2013-02-15 14:55:00,30.6,14.6,30.06,WNW,296,8.6,10.4,51,0.00,BKN,,0.00,165.0,WeatherDisplay:10.37,2013-02-15 19:55:00,
2013-02-15 15:00:00,30.3,14.3,30.06,WNW,282,9.9,10.5,51,0.00,BKN,,0.00,209.0,WeatherDisplay:10.37,2013-02-15 20:00:00,
2013-02-15 15:05:00,30.0,14.0,30.06,NNW,332,7.4,11.5,51,0.00,OVC,,0.00,144.0,WeatherDisplay:10.37,2013-02-15 20:05:00,
2013-02-15 15:10:00,29.8,13.9,30.06,NNW,333,6.2,8.1,51,0.00,OVC,,0.00,151.0,WeatherDisplay:10.37,2013-02-15 20:10:00,
2013-02-15 15:15:00,30.0,14.5,30.06,WNW,288,12.4,12.4,52,0.00,OVC,,0.00,181.0,WeatherDisplay:10.37,2013-02-15 20:15:00,
2013-02-15 15:20:00,30.1,14.6,30.07,NW,311,8.3,10.4,52,0.00,OVC,,0.00,160.0,WeatherDisplay:10.37,2013-02-15 20:20:00,
2013-02-15 15:25:00,29.5,13.6,30.07,NW,315,6.1,9.2,51,0.00,OVC,,0.00,146.0,WeatherDisplay:10.37,2013-02-15 20:25:00,
2013-02-15 15:30:00,29.7,14.2,30.07,NW,315,7.9,12.0,52,0.00,OVC,,0.00,162.0,WeatherDisplay:10.37,2013-02-15 20:30:00,
2013-02-15 15:35:00,29.4,13.0,30.07,WNW,285,11.8,15.0,50,0.00,OVC,,0.00,165.0,WeatherDisplay:10.37,2013-02-15 20:35:00,
2013-02-15 15:40:00,29.4,12.6,30.07,NW,326,8.8,10.4,49,0.00,OVC,,0.00,167.0,WeatherDisplay:10.37,2013-02-15 20:40:00,
2013-02-15 15:45:00,29.5,12.7,30.07,WNW,284,7.5,11.5,49,0.00,OVC,,0.00,141.0,WeatherDisplay:10.37,2013-02-15 20:45:00,
2013-02-15 15:50:00,29.7,12.8,30.07,NW,313,4.8,4.8,49,0.00,OVC,,0.00,155.0,WeatherDisplay:10.37,2013-02-15 20:50:00,
2013-02-15 15:55:00,29.7,12.8,30.07,NW,305,3.9,7.5,49,0.00,OVC,,0.00,132.0,WeatherDisplay:10.37,2013-02-15 20:55:00,
2013-02-15 16:00:00,29.7,12.8,30.07,WNW,301,8.0,9.2,49,0.00,OVC,,0.00,151.0,WeatherDisplay:10.37,2013-02-15 21:00:00,
2013-02-15 16:05:00,29.8,13.4,30.08,WNW,302,2.7,4.5,50,0.00,OVC,,0.00,150.0,WeatherDisplay:10.37,2013-02-15 21:05:00,
2013-02-15 16:10:00,29.8,12.9,30.08,NW,326,8.2,9.2,49,0.00,OVC,,0.00,137.0,WeatherDisplay:10.37,2013-02-15 21:10:00,
2013-02-15 16:15:00,29.8,12.9,30.08,WNW,294,6.4,9.2,49,0.00,OVC,,0.00,120.0,WeatherDisplay:10.37,2013-02-15 21:15:00,
2013-02-15 16:20:00,29.5,12.7,30.08,WNW,284,8.9,8.9,49,0.00,OVC,,0.00,91.0,WeatherDisplay:10.37,2013-02-15 21:20:00,
2013-02-15 16:25:00,29.3,12.5,30.08,NW,323,3.9,4.5,49,0.00,OVC,,0.00,97.0,WeatherDisplay:10.37,2013-02-15 21:25:00,
2013-02-15 16:30:00,29.1,11.8,30.08,NW,326,4.6,8.1,48,0.00,OVC,,0.00,97.0,WeatherDisplay:10.37,2013-02-15 21:30:00,
2013-02-15 16:36:00,29.1,12.3,30.09,NW,313,7.6,7.6,49,0.00,OVC,,0.00,111.0,WeatherDisplay:10.37,2013-02-15 21:36:00,
2013-02-15 16:41:00,29.1,12.3,30.09,WNW,292,5.7,7.5,49,0.00,OVC,,0.00,125.0,WeatherDisplay:10.37,2013-02-15 21:41:00,
2013-02-15 16:46:00,29.3,12.9,30.09,NW,309,7.4,9.2,50,0.00,OVC,,0.00,74.0,WeatherDisplay:10.37,2013-02-15 21:46:00,
2013-02-15 16:51:00,28.8,12.9,30.09,WNW,291,7.8,8.1,51,0.00,OVC,,0.00,120.0,WeatherDisplay:10.37,2013-02-15 21:51:00,
2013-02-15 16:56:00,28.7,12.8,30.09,NW,312,8.3,9.2,51,0.00,OVC,,0.00,62.0,WeatherDisplay:10.37,2013-02-15 21:56:00,
2013-02-15 17:01:00,28.8,12.9,30.09,WNW,302,6.5,8.1,51,0.00,BKN,,0.00,67.0,WeatherDisplay:10.37,2013-02-15 22:01:00,
2013-02-15 17:06:00,28.8,12.5,30.09,West,275,8.7,9.2,50,0.00,BKN,,0.00,44.0,WeatherDisplay:10.37,2013-02-15 22:06:00,
2013-02-15 17:11:00,28.5,12.2,30.09,WNW,291,7.5,8.1,50,0.00,BKN,,0.00,26.0,WeatherDisplay:10.37,2013-02-15 22:11:00,
2013-02-15 17:16:00,28.2,11.9,30.10,WNW,295,5.8,8.1,50,0.00,BKN,,0.00,21.0,WeatherDisplay:10.37,2013-02-15 22:16:00,
2013-02-15 17:21:00,27.9,11.6,30.10,NW,319,4.5,5.8,50,0.00,BKN,,0.00,21.0,WeatherDisplay:10.37,2013-02-15 22:21:00,
2013-02-15 17:26:00,27.8,12.0,30.10,NW,305,5.6,8.1,51,0.00,BKN,,0.00,40.0,WeatherDisplay:10.37,2013-02-15 22:26:00,
2013-02-15 17:31:00,27.8,12.0,30.10,WNW,291,3.5,4.6,51,0.00,BKN,,0.00,25.0,WeatherDisplay:10.37,2013-02-15 22:31:00,
2013-02-15 17:36:00,27.6,11.8,30.10,WNW,291,4.2,4.6,51,0.00,BKN,,0.00,23.0,WeatherDisplay:10.37,2013-02-15 22:36:00,
2013-02-15 17:41:00,27.6,12.2,30.10,WNW,291,2.0,3.5,52,0.00,BKN,,0.00,21.0,WeatherDisplay:10.37,2013-02-15 22:41:00,
2013-02-15 17:46:00,27.6,12.2,30.11,WNW,287,2.6,4.6,52,0.00,BKN,,0.00,21.0,WeatherDisplay:10.37,2013-02-15 22:46:00,
2013-02-15 17:51:00,27.8,12.9,30.11,WNW,287,2.3,4.6,53,0.00,BKN,,0.00,18.0,WeatherDisplay:10.37,2013-02-15 22:51:00,
2013-02-15 17:56:00,27.8,12.9,30.11,WNW,292,4.9,5.8,53,0.00,BKN,,0.00,12.0,WeatherDisplay:10.37,2013-02-15 22:56:00,
2013-02-15 18:01:00,27.8,12.9,30.11,WNW,292,3.1,4.6,53,0.00,BKN,,0.00,7.0,WeatherDisplay:10.37,2013-02-15 23:01:00,
2013-02-15 18:06:00,27.8,12.4,30.11,WNW,287,4.3,8.1,52,0.00,BKN,,0.00,5.0,WeatherDisplay:10.37,2013-02-15 23:06:00,
2013-02-15 18:11:00,27.6,11.8,30.11,WNW,289,5.1,9.2,51,0.00,BKN,,0.00,5.0,WeatherDisplay:10.37,2013-02-15 23:11:00,
2013-02-15 18:16:00,27.5,11.7,30.11,WNW,284,6.4,10.5,51,0.00,BKN,,0.00,0.0,WeatherDisplay:10.37,2013-02-15 23:16:00,
2013-02-15 18:21:00,27.3,12.0,30.11,WNW,291,2.1,3.5,52,0.00,BKN,,0.00,0.0,WeatherDisplay:10.37,2013-02-15 23:21:00,
2013-02-15 18:26:00,27.3,12.0,30.11,WNW,291,3.7,4.6,52,0.00,BKN,,0.00,0.0,WeatherDisplay:10.37,2013-02-15 23:26:00,
2013-02-15 18:31:00,27.3,12.4,30.12,WNW,289,1.2,1.5,53,0.00,BKN,,0.00,0.0,WeatherDisplay:10.37,2013-02-15 23:31:00,
2013-02-15 18:36:00,27.5,12.6,30.12,WNW,289,3.6,3.6,53,0.00,BKN,,0.00,0.0,WeatherDisplay:10.37,2013-02-15 23:36:00,
2013-02-15 18:41:00,27.5,12.6,30.12,WNW,291,2.5,3.5,53,0.00,BKN,,0.00,0.0,WeatherDisplay:10.37,2013-02-15 23:41:00,
2013-02-15 18:46:00,27.5,12.6,30.12,WNW,289,4.4,4.6,53,0.00,BKN,,0.00,0.0,WeatherDisplay:10.37,2013-02-15 23:46:00,
2013-02-15 18:51:00,27.5,12.6,30.12,WNW,299,3.4,4.6,53,0.00,BKN,,0.00,0.0,WeatherDisplay:10.37,2013-02-15 23:51:00,
2013-02-15 18:56:00,27.5,12.6,30.12,WNW,295,5.3,8.1,53,0.00,BKN,,0.00,0.0,WeatherDisplay:10.37,2013-02-15 23:56:00,
2013-02-15 19:01:00,27.5,12.6,30.12,WNW,291,2.4,3.5,53,0.00,SCT,,0.00,0.0,WeatherDisplay:10.37,2013-02-16 00:01:00,
2013-02-15 19:06:00,27.3,12.0,30.12,West,275,4.7,9.2,52,0.00,SCT,,0.00,0.0,WeatherDisplay:10.37,2013-02-16 00:06:00,
2013-02-15 19:11:00,27.3,12.4,30.12,West,277,2.4,3.5,53,0.00,SCT,,0.00,0.0,WeatherDisplay:10.37,2013-02-16 00:11:00,
2013-02-15 19:16:00,27.3,12.4,30.12,WNW,295,9.3,9.3,53,0.00,SCT,,0.00,0.0,WeatherDisplay:10.37,2013-02-16 00:16:00,
2013-02-15 19:21:00,27.3,12.4,30.12,WNW,285,4.9,4.9,53,0.00,SCT,,0.00,0.0,WeatherDisplay:10.37,2013-02-16 00:21:00,
2013-02-15 19:26:00,27.2,12.7,30.12,West,261,6.4,8.1,54,0.00,SCT,,0.00,0.0,WeatherDisplay:10.37,2013-02-16 00:26:00,
2013-02-15 19:31:00,27.2,12.7,30.12,WNW,294,6.4,8.1,54,0.00,SCT,,0.00,0.0,WeatherDisplay:10.37,2013-02-16 00:31:00,
2013-02-15 19:36:00,27.2,12.7,30.12,WNW,294,4.9,8.1,54,0.00,SCT,,0.00,0.0,WeatherDisplay:10.37,2013-02-16 00:36:00,
2013-02-15 19:41:00,27.2,12.7,30.12,WNW,288,5.2,5.8,54,0.00,SCT,,0.00,0.0,WeatherDisplay:10.37,2013-02-16 00:41:00,
2013-02-15 19:46:00,27.2,12.7,30.12,WNW,289,2.6,4.6,54,0.00,SCT,,0.00,0.0,WeatherDisplay:10.37,2013-02-16 00:46:00,
2013-02-15 19:51:00,27.2,12.7,30.12,WSW,257,6.0,8.1,54,0.00,SCT,,0.00,0.0,WeatherDisplay:10.37,2013-02-16 00:51:00,
2013-02-15 19:56:00,27.2,12.7,30.12,WNW,284,3.2,4.6,54,0.00,SCT,,0.00,0.0,WeatherDisplay:10.37,2013-02-16 00:56:00,
2013-02-15 20:01:00,27.2,13.1,30.13,WNW,282,4.1,4.6,55,0.00,BKN,,0.00,0.0,WeatherDisplay:10.37,2013-02-16 01:01:00,
2013-02-15 20:06:00,27.2,13.1,30.13,WNW,298,4.9,4.9,55,0.00,BKN,,0.00,0.0,WeatherDisplay:10.37,2013-02-16 01:06:00,
2013-02-15 20:11:00,27.0,13.0,30.13,NW,313,8.1,9.2,55,0.00,BKN,,0.00,0.0,WeatherDisplay:10.37,2013-02-16 01:11:00,
2013-02-15 20:16:00,27.0,12.5,30.13,West,281,9.7,9.7,54,0.00,BKN,,0.00,0.0,WeatherDisplay:10.37,2013-02-16 01:16:00,
2013-02-15 20:21:00,26.9,12.9,30.13,WNW,301,5.4,9.0,55,0.00,BKN,,0.00,0.0,WeatherDisplay:10.37,2013-02-16 01:21:00,
2013-02-15 20:26:00,26.9,12.5,30.13,WNW,285,6.3,9.2,54,0.00,BKN,,0.00,0.0,WeatherDisplay:10.37,2013-02-16 01:26:00,
2013-02-15 20:31:00,26.9,12.5,30.13,WNW,296,7.1,9.0,54,0.00,BKN,,0.00,0.0,WeatherDisplay:10.37,2013-02-16 01:31:00,
2013-02-15 20:36:00,26.9,12.5,30.13,NW,305,8.8,9.2,54,0.00,BKN,,0.00,0.0,WeatherDisplay:10.37,2013-02-16 01:36:00,
2013-02-15 20:41:00,26.9,12.5,30.13,WNW,299,6.4,9.2,54,0.00,BKN,,0.00,0.0,WeatherDisplay:10.37,2013-02-16 01:41:00,
2013-02-15 20:46:00,26.9,12.5,30.13,WNW,284,6.6,8.1,54,0.00,BKN,,0.00,0.0,WeatherDisplay:10.37,2013-02-16 01:46:00,
2013-02-15 20:51:00,26.9,12.5,30.13,WNW,295,4.5,4.6,54,0.00,BKN,,0.00,0.0,WeatherDisplay:10.37,2013-02-16 01:51:00,
2013-02-15 20:56:00,26.9,12.9,30.13,WNW,295,2.6,4.6,55,0.00,BKN,,0.00,0.0,WeatherDisplay:10.37,2013-02-16 01:56:00,
2013-02-15 21:01:00,26.9,12.9,30.13,West,275,6.3,9.0,55,0.00,BKN,,0.00,0.0,WeatherDisplay:10.37,2013-02-16 02:01:00,
2013-02-15 21:06:00,26.7,12.3,30.13,WNW,294,9.0,10.4,54,0.00,BKN,,0.00,0.0,WeatherDisplay:10.37,2013-02-16 02:06:00,
2013-02-15 21:11:00,26.7,11.8,30.13,NW,308,5.4,10.4,53,0.00,BKN,,0.00,0.0,WeatherDisplay:10.37,2013-02-16 02:11:00,
2013-02-15 21:16:00,26.6,12.2,30.13,WNW,285,3.4,9.2,54,0.00,BKN,,0.00,0.0,WeatherDisplay:10.37,2013-02-16 02:16:00,
2013-02-15 21:21:00,26.6,12.2,30.13,WNW,285,3.3,3.5,54,0.00,BKN,,0.00,0.0,WeatherDisplay:10.37,2013-02-16 02:21:00,
2013-02-15 21:26:00,26.6,12.2,30.13,NW,323,4.1,5.8,54,0.00,BKN,,0.00,0.0,WeatherDisplay:10.37,2013-02-16 02:26:00,
2013-02-15 21:31:00,26.6,12.2,30.13,WNW,292,4.8,9.2,54,0.00,BKN,,0.00,0.0,WeatherDisplay:10.37,2013-02-16 02:31:00,
2013-02-15 21:36:00,26.6,12.2,30.13,WNW,296,5.3,5.8,54,0.00,BKN,,0.00,0.0,WeatherDisplay:10.37,2013-02-16 02:36:00,
2013-02-15 21:41:00,26.6,12.6,30.13,WSW,240,8.1,9.2,55,0.00,BKN,,0.00,0.0,WeatherDisplay:10.37,2013-02-16 02:41:00,
2013-02-15 21:46:00,26.6,12.6,30.13,WNW,282,2.8,3.5,55,0.00,BKN,,0.00,0.0,WeatherDisplay:10.37,2013-02-16 02:46:00,
2013-02-15 21:51:00,26.6,13.0,30.13,WNW,284,2.3,3.5,56,0.00,BKN,,0.00,0.0,WeatherDisplay:10.37,2013-02-16 02:51:00,
2013-02-15 21:56:00,26.4,12.8,30.13,WNW,285,4.5,4.6,56,0.00,BKN,,0.00,0.0,WeatherDisplay:10.37,2013-02-16 02:56:00,
2013-02-15 22:01:00,26.4,12.8,30.13,WNW,288,4.7,4.7,56,0.00,BKN,,0.00,0.0,WeatherDisplay:10.37,2013-02-16 03:01:00,
2013-02-15 22:06:00,26.4,12.4,30.13,WNW,287,6.1,8.1,55,0.00,BKN,,0.00,0.0,WeatherDisplay:10.37,2013-02-16 03:06:00,
2013-02-15 22:11:00,26.4,12.4,30.13,West,277,6.4,9.0,55,0.00,BKN,,0.00,0.0,WeatherDisplay:10.37,2013-02-16 03:11:00,
2013-02-15 22:16:00,26.4,12.4,30.13,NW,309,4.7,4.7,55,0.00,BKN,,0.00,0.0,WeatherDisplay:10.37,2013-02-16 03:16:00,
2013-02-15 22:21:00,26.4,12.4,30.13,WNW,296,6.0,6.0,55,0.00,BKN,,0.00,0.0,WeatherDisplay:10.37,2013-02-16 03:21:00,
2013-02-15 22:26:00,26.6,13.0,30.13,West,275,5.6,7.5,56,0.00,BKN,,0.00,0.0,WeatherDisplay:10.37,2013-02-16 03:26:00,
2013-02-15 22:31:00,26.4,14.0,30.13,NW,319,9.9,10.4,59,0.00,BKN,,0.00,0.0,WeatherDisplay:10.37,2013-02-16 03:31:00,
2013-02-15 22:36:00,26.3,15.0,30.13,NW,304,5.2,9.2,62,0.00,BKN,,0.00,0.0,WeatherDisplay:10.37,2013-02-16 03:36:00,
2013-02-15 22:41:00,26.0,14.8,30.13,West,267,12.2,12.2,62,0.00,BKN,,0.00,0.0,WeatherDisplay:10.37,2013-02-16 03:41:00,
2013-02-15 22:46:00,25.7,14.1,30.13,WNW,292,6.9,9.2,61,0.00,BKN,,0.00,0.0,WeatherDisplay:10.37,2013-02-16 03:46:00,
2013-02-15 22:51:00,25.6,13.2,30.13,WNW,291,5.7,5.8,59,0.00,BKN,,0.00,0.0,WeatherDisplay:10.37,2013-02-16 03:51:00,
2013-02-15 22:56:00,25.6,12.5,30.13,WSW,258,12.1,15.0,57,0.00,BKN,,0.00,0.0,WeatherDisplay:10.37,2013-02-16 03:56:00,
2013-02-15 23:01:00,25.6,12.5,30.13,WSW,258,11.4,11.4,57,0.00,OVC,,0.00,0.0,WeatherDisplay:10.37,2013-02-16 04:01:00,
2013-02-15 23:06:00,25.4,12.7,30.13,NNW,328,7.6,8.1,58,0.00,OVC,,0.00,0.0,WeatherDisplay:10.37,2013-02-16 04:06:00,
2013-02-15 23:11:00,25.3,12.6,30.13,WNW,288,9.6,10.4,58,0.00,OVC,,0.00,0.0,WeatherDisplay:10.37,2013-02-16 04:11:00,
2013-02-15 23:16:00,25.1,12.4,30.13,WNW,301,6.7,8.1,58,0.00,OVC,,0.00,0.0,WeatherDisplay:10.37,2013-02-16 04:16:00,
2013-02-15 23:21:00,25.1,12.8,30.13,WNW,302,4.7,4.7,59,0.00,OVC,,0.00,0.0,WeatherDisplay:10.37,2013-02-16 04:21:00,
2013-02-15 23:27:00,25.0,12.3,30.13,WNW,296,7.8,8.1,58,0.00,OVC,,0.00,0.0,WeatherDisplay:10.37,2013-02-16 04:27:00,
2013-02-15 23:32:00,24.8,12.1,30.12,West,274,13.5,13.5,58,0.00,OVC,,0.00,0.0,WeatherDisplay:10.37,2013-02-16 04:32:00,
2013-02-15 23:37:00,24.7,12.0,30.12,WNW,292,8.6,9.0,58,0.00,OVC,,0.00,0.0,WeatherDisplay:10.37,2013-02-16 04:37:00,
2013-02-15 23:42:00,24.5,11.8,30.12,West,271,8.7,8.7,58,0.00,OVC,,0.00,0.0,WeatherDisplay:10.37,2013-02-16 04:42:00,
2013-02-15 23:47:00,24.4,12.1,30.12,NW,315,9.6,9.6,59,0.00,OVC,,0.00,0.0,WeatherDisplay:10.37,2013-02-16 04:47:00,
2013-02-15 23:52:00,24.2,12.3,30.12,WNW,294,4.1,4.5,60,0.00,OVC,,0.00,0.0,WeatherDisplay:10.37,2013-02-16 04:52:00,
2013-02-15 23:57:00,24.1,12.6,30.12,WNW,294,6.3,8.1,61,0.00,OVC,,0.00,0.0,WeatherDisplay:10.37,2013-02-16 04:57:00,